sensor_id;sensor_type;location;lat;lon;timestamp;temperature;humidity
1878;DHT22;939;51.426;6.972;2024-01-27T00:01:14;5.50;99.90
1878;DHT22;939;51.426;6.972;2024-01-27T00:03:53;5.60;99.90
1878;DHT22;939;51.426;6.972;2024-01-27T00:06:48;5.50;99.90
1878;DHT22;939;51.426;6.972;2024-01-27T00:09:22;5.50;99.90
1878;DHT22;939;51.426;6.972;2024-01-27T00:11:49;5.50;99.90
1878;DHT22;939;51.426;6.972;2024-01-27T00:14:17;5.40;99.90
1878;DHT22;939;51.426;6.972;2024-01-27T00:16:45;5.40;99.90
1878;DHT22;939;51.426;6.972;2024-01-27T00:19:16;5.40;99.90
1878;DHT22;939;51.426;6.972;2024-01-27T00:21:47;5.40;99.90
1878;DHT22;939;51.426;6.972;2024-01-27T00:24:28;5.40;99.90
1878;DHT22;939;51.426;6.972;2024-01-27T00:26:55;5.20;99.90
1878;DHT22;939;51.426;6.972;2024-01-27T00:29:32;5.20;99.90
1878;DHT22;939;51.426;6.972;2024-01-27T00:32:51;5.20;99.90
1878;DHT22;939;51.426;6.972;2024-01-27T00:35:24;5.20;99.90
1878;DHT22;939;51.426;6.972;2024-01-27T00:37:53;5.20;99.90
1878;DHT22;939;51.426;6.972;2024-01-27T00:40:23;5.20;99.90
1878;DHT22;939;51.426;6.972;2024-01-27T00:42:53;5.10;99.90
1878;DHT22;939;51.426;6.972;2024-01-27T00:45:29;5.10;99.90
1878;DHT22;939;51.426;6.972;2024-01-27T00:48:00;5.10;99.90
1878;DHT22;939;51.426;6.972;2024-01-27T00:50:29;5.20;99.90
1878;DHT22;939;51.426;6.972;2024-01-27T00:52:56;5.20;99.90
1878;DHT22;939;51.426;6.972;2024-01-27T00:55:23;5.10;99.90
1878;DHT22;939;51.426;6.972;2024-01-27T00:57:50;5.20;99.90
1878;DHT22;939;51.426;6.972;2024-01-27T01:00:17;5.20;99.90
1878;DHT22;939;51.426;6.972;2024-01-27T01:02:46;5.10;99.90
1878;DHT22;939;51.426;6.972;2024-01-27T01:05:14;5.10;99.90
1878;DHT22;939;51.426;6.972;2024-01-27T01:07:42;5.10;99.90
1878;DHT22;939;51.426;6.972;2024-01-27T01:10:12;5.00;99.90
1878;DHT22;939;51.426;6.972;2024-01-27T01:12:39;5.00;99.90
1878;DHT22;939;51.426;6.972;2024-01-27T01:15:07;5.00;99.90
1878;DHT22;939;51.426;6.972;2024-01-27T01:17:34;5.00;99.90
1878;DHT22;939;51.426;6.972;2024-01-27T01:20:01;4.90;99.90
1878;DHT22;939;51.426;6.972;2024-01-27T01:22:28;5.00;99.90
1878;DHT22;939;51.426;6.972;2024-01-27T11:22:34;7.20;99.90
1878;DHT22;939;51.426;6.972;2024-01-27T11:25:07;7.10;99.90
1878;DHT22;939;51.426;6.972;2024-01-27T11:27:34;7.30;99.90
1878;DHT22;939;51.426;6.972;2024-01-27T11:30:05;7.30;99.90
1878;DHT22;939;51.426;6.972;2024-01-27T11:32:36;7.30;99.90
1878;DHT22;939;51.426;6.972;2024-01-27T11:35:05;7.30;99.90
1878;DHT22;939;51.426;6.972;2024-01-27T11:37:33;7.20;99.90
1878;DHT22;939;51.426;6.972;2024-01-27T11:40:04;7.20;99.90
1878;DHT22;939;51.426;6.972;2024-01-27T11:42:33;7.30;99.90
1878;DHT22;939;51.426;6.972;2024-01-27T11:45:02;7.20;99.90
1878;DHT22;939;51.426;6.972;2024-01-27T11:47:30;7.20;99.90
1878;DHT22;939;51.426;6.972;2024-01-27T11:49:57;7.30;99.90
1878;DHT22;939;51.426;6.972;2024-01-27T11:52:24;7.40;99.90
1878;DHT22;939;51.426;6.972;2024-01-27T11:54:56;7.50;99.90
1878;DHT22;939;51.426;6.972;2024-01-27T11:57:26;7.60;99.90
1878;DHT22;939;51.426;6.972;2024-01-27T11:59:54;7.50;99.90
1878;DHT22;939;51.426;6.972;2024-01-27T12:02:21;7.60;99.90
1878;DHT22;939;51.426;6.972;2024-01-27T12:04:47;7.60;99.90
1878;DHT22;939;51.426;6.972;2024-01-27T12:07:15;7.70;99.90
1878;DHT22;939;51.426;6.972;2024-01-27T12:09:44;7.70;99.90
1878;DHT22;939;51.426;6.972;2024-01-27T12:12:13;7.70;99.90
1878;DHT22;939;51.426;6.972;2024-01-27T12:14:41;7.80;99.90
1878;DHT22;939;51.426;6.972;2024-01-27T12:17:11;7.80;99.90
1878;DHT22;939;51.426;6.972;2024-01-27T12:19:38;7.80;99.90
1878;DHT22;939;51.426;6.972;2024-01-27T12:22:21;7.80;99.90
1878;DHT22;939;51.426;6.972;2024-01-27T12:24:48;7.80;99.90
1878;DHT22;939;51.426;6.972;2024-01-27T12:27:17;7.90;99.90
1878;DHT22;939;51.426;6.972;2024-01-27T12:29:47;7.90;99.90
1878;DHT22;939;51.426;6.972;2024-01-27T12:32:14;8.00;99.90
1878;DHT22;939;51.426;6.972;2024-01-27T12:34:42;7.90;99.90
1878;DHT22;939;51.426;6.972;2024-01-27T12:37:11;8.00;99.90
1878;DHT22;939;51.426;6.972;2024-01-27T12:39:41;8.00;99.90
1878;DHT22;939;51.426;6.972;2024-01-27T12:42:08;8.00;99.90
1878;DHT22;939;51.426;6.972;2024-01-27T12:44:37;8.00;99.90
1878;DHT22;939;51.426;6.972;2024-01-27T12:47:04;8.00;99.90
1878;DHT22;939;51.426;6.972;2024-01-27T12:49:31;8.10;99.90
1878;DHT22;939;51.426;6.972;2024-01-27T12:51:58;8.10;99.90
1878;DHT22;939;51.426;6.972;2024-01-27T12:54:25;8.00;99.90
1878;DHT22;939;51.426;6.972;2024-01-27T12:56:53;8.00;99.90
1878;DHT22;939;51.426;6.972;2024-01-27T12:59:19;8.10;99.90
1878;DHT22;939;51.426;6.972;2024-01-27T13:01:48;8.10;99.90
1878;DHT22;939;51.426;6.972;2024-01-27T13:04:15;8.20;99.90
1878;DHT22;939;51.426;6.972;2024-01-27T13:06:42;8.20;99.90
1878;DHT22;939;51.426;6.972;2024-01-27T13:09:10;8.10;99.90
1878;DHT22;939;51.426;6.972;2024-01-27T13:11:38;8.20;99.90
1878;DHT22;939;51.426;6.972;2024-01-27T13:14:05;8.20;99.90
1878;DHT22;939;51.426;6.972;2024-01-27T13:16:32;8.20;99.90
1878;DHT22;939;51.426;6.972;2024-01-27T13:19:00;8.20;99.90
1878;DHT22;939;51.426;6.972;2024-01-27T13:21:27;8.00;99.90
1878;DHT22;939;51.426;6.972;2024-01-27T13:23:54;8.20;99.90
1878;DHT22;939;51.426;6.972;2024-01-27T22:18:55;4.60;99.90
1878;DHT22;939;51.426;6.972;2024-01-27T22:21:24;4.70;99.90
1878;DHT22;939;51.426;6.972;2024-01-27T22:24:25;4.70;99.90
1878;DHT22;939;51.426;6.972;2024-01-27T22:27:05;4.70;99.90
